Arcturus, Minnesota
Current Conditions -  °F | °C
As of 2:55 AM on Friday 31 Oct 2014 (Local Time) from KGPZ Reporting Station
Overcast Overcast  
Wind Chill: 15°   Ceiling: 3200
Heat Index: 27°   Visibility: 10mi
Dew Point: 16°   Wind: 14mph
Humidity: 64%   Direction: 350°N
Pressure: 30.47"   Gusts: 22mph
Location:  47.3121°N, 93.3823°W
Report Text: KGPZ 310755Z AUTO 35012G19KT 10SM OVC032 M03/M09 A3047 RMK AO1
Loading
Personal Weather Stations






























Interactive Weather Map New forecast layout! Learn more

10-Day Weather Forecast

Advertisements
Track Severe Weather on mobile